Marinicki — 9HWU9 — position and weather

sailwx.info

Track history (hours):
 
Tides and Currents Weather Stations Pressure Air Temp Water Temp Dewpoint Dewpoint Depression Visibility Wind Speed Wind Dir Waves Ship Positions

Marinicki

Last reported at 2014-Nov-02 17:09 UTC. Time now 2014-Nov-29 05:11 UTC.
Position N 10°29' W 014°43'.
Warning: this ship's position is 26 days out of date.

Length 218 m; draft 12.9 m.

Type: Ship. MMSI: 249650000.

Date/timePositionNaut miles runAvg speedWind from/ knotsBaromVisibWave heightAir tempDewpointWater temp
2014-Nov-02 17:09N 10°29' W 014°43'4 7.3
2014-Nov-02 16:33N 10°33' W 014°41'6 6.3
2014-Nov-02 15:33N 10°39' W 014°38'0 0.0
2014-Nov-02 14:23N 10°39' W 014°38'0 0.0
2014-Nov-02 13:26N 10°39' W 014°38'0 0.0
2014-Nov-02 12:26N 10°39' W 014°38'0 0.0
2014-Nov-02 11:29N 10°39' W 014°38'0 0.0
2014-Nov-02 10:29N 10°39' W 014°38'0 0.0
2014-Nov-02 09:32N 10°39' W 014°38'0 0.0
2014-Nov-02 08:32N 10°39' W 014°38'0 0.0
2014-Nov-02 07:32N 10°39' W 014°38'0 0.0
2014-Nov-02 06:32N 10°39' W 014°38'0 0.0
2014-Nov-02 05:29N 10°39' W 014°38'0 0.0
2014-Nov-02 04:08N 10°39' W 014°38'0 0.0
2014-Nov-02 03:20N 10°39' W 014°38'0 0.0
2014-Nov-02 02:23N 10°39' W 014°38'0 0.0
2014-Nov-02 01:20N 10°39' W 014°38'0 0.0
2014-Nov-02 00:23N 10°39' W 014°38'0 0.0
2014-Nov-01 23:26N 10°39' W 014°38'0 0.0
2014-Nov-01 22:26N 10°39' W 014°38'0 0.0
2014-Nov-01 21:29N 10°39' W 014°38'0 0.0
2014-Nov-01 14:20N 10°39' W 014°38'0 0.0
2014-Nov-01 13:17N 10°39' W 014°38'0 0.0
2014-Nov-01 11:23N 10°39' W 014°38'0 0.0
2014-Nov-01 10:26N 10°39' W 014°38'0 0.0
2014-Nov-01 09:23N 10°39' W 014°38'0 0.0
2014-Nov-01 08:14N 10°39' W 014°38'0 0.0
2014-Nov-01 07:11N 10°39' W 014°38'0 0.0
2014-Nov-01 06:11N 10°39' W 014°38'0 0.0
2014-Nov-01 05:29N 10°39' W 014°38'0 0.0
2014-Nov-01 04:29N 10°39' W 014°38'0 0.0
2014-Nov-01 03:32N 10°39' W 014°38'0 0.0
2014-Nov-01 02:21N 10°39' W 014°38'0 0.3
2014-Nov-01 01:33N 10°39' W 014°38'1 0.5
2014-Nov-01 00:26N 10°38' W 014°38'0 0.0
2014-Oct-31 23:26N 10°38' W 014°38'0 0.1
2014-Oct-31 22:29N 10°38' W 014°38'0 0.2
2014-Oct-31 21:29N 10°38' W 014°38'0 0.0
2014-Oct-31 20:26N 10°38' W 014°38'0 0.0
2014-Oct-31 19:29N 10°38' W 014°38'0 0.0
2014-Oct-31 18:14N 10°38' W 014°38'0 0.0
2014-Oct-31 17:32N 10°38' W 014°38'0 0.1
2014-Oct-31 16:20N 10°38' W 014°38'0 0.1
2014-Oct-31 15:32N 10°38' W 014°38'0 0.2
2014-Oct-31 14:32N 10°38' W 014°38'0 0.0
2014-Oct-31 13:20N 10°38' W 014°38'0 0.0
2014-Oct-31 12:23N 10°38' W 014°38'0 0.0
2014-Oct-31 11:26N 10°38' W 014°38'0 0.0
2014-Oct-31 10:11N 10°38' W 014°38'0 0.3
2014-Oct-31 09:23N 10°38' W 014°38'0 0.1
2014-Oct-31 08:29N 10°38' W 014°38'0 0.0
2014-Oct-31 07:14N 10°38' W 014°38'0 0.0
2014-Oct-31 06:11N 10°38' W 014°38'0 0.0
2014-Oct-31 05:29N 10°38' W 014°38'0 0.0
2014-Oct-31 04:32N 10°38' W 014°38'0 0.0
2014-Oct-31 03:32N 10°38' W 014°38'0 0.2
2014-Oct-31 02:32N 10°38' W 014°38'9 9.4
2014-Oct-31 01:34N 10°30' W 014°43'4 4.2
2014-Oct-31 00:33N 10°26' W 014°45'0 0.0
2014-Oct-30 23:34N 10°26' W 014°45'0 0.2
2014-Oct-30 22:34N 10°26' W 014°45'0 0.2
2014-Oct-30 21:32N 10°26' W 014°45'0 0.0
2014-Oct-30 20:25N 10°26' W 014°45'0 0.0
2014-Oct-30 19:32N 10°26' W 014°45'0 0.0
2014-Oct-30 18:33N 10°26' W 014°45'0 0.0
2014-Oct-30 17:30N 10°26' W 014°45'0 0.0
2014-Oct-30 16:33N 10°26' W 014°45'0 0.0
2014-Oct-30 15:27N 10°26' W 014°45'0 0.0
2014-Oct-30 09:31N 10°26' W 014°45'0 0.2
2014-Oct-30 08:23N 10°26' W 014°45'0 0.0
2014-Oct-30 06:29N 10°26' W 014°45'0 0.0
2014-Oct-30 04:33N 10°26' W 014°45'0 0.0
2014-Oct-30 03:33N 10°26' W 014°45'0 0.2
2014-Oct-30 02:31N 10°26' W 014°45'0 0.2
2014-Oct-30 01:31N 10°26' W 014°45'0 0.0
2014-Oct-30 00:07N 10°26' W 014°45'0 0.0
2014-Oct-29 23:23N 10°26' W 014°45'0 0.1
2014-Oct-29 19:32N 10°26' W 014°45'0 0.1
2014-Oct-29 18:33N 10°26' W 014°45'0 0.0
2014-Oct-29 17:20N 10°26' W 014°45'  
2014-Oct-26 05:04N 26°10' W 015°35'  
Track history (hours):
 
Tides and Currents Weather Stations Pressure Air Temp Water Temp Dewpoint Dewpoint Depression Visibility Wind Speed Wind Dir Waves Ship Positions

Marinicki

Last reported at 2014-Nov-02 17:09 UTC. Time now 2014-Nov-29 05:11 UTC.
Position N 10°29' W 014°43'.
Warning: this ship's position is 26 days out of date.

Length 218 m; draft 12.9 m.

Type: Ship. MMSI: 249650000.

Date/timePositionNaut miles runAvg speedWind from/ knotsBaromVisibWave heightAir tempDewpointWater temp
2014-Nov-02 17:09N 10°29' W 014°43'4 7.3
2014-Nov-02 16:33N 10°33' W 014°41'6 6.3
2014-Nov-02 15:33N 10°39' W 014°38'0 0.0
2014-Nov-02 14:23N 10°39' W 014°38'0 0.0
2014-Nov-02 13:26N 10°39' W 014°38'0 0.0
2014-Nov-02 12:26N 10°39' W 014°38'0 0.0
2014-Nov-02 11:29N 10°39' W 014°38'0 0.0
2014-Nov-02 10:29N 10°39' W 014°38'0 0.0
2014-Nov-02 09:32N 10°39' W 014°38'0 0.0
2014-Nov-02 08:32N 10°39' W 014°38'0 0.0
2014-Nov-02 07:32N 10°39' W 014°38'0 0.0
2014-Nov-02 06:32N 10°39' W 014°38'0 0.0
2014-Nov-02 05:29N 10°39' W 014°38'0 0.0
2014-Nov-02 04:08N 10°39' W 014°38'0 0.0
2014-Nov-02 03:20N 10°39' W 014°38'0 0.0
2014-Nov-02 02:23N 10°39' W 014°38'0 0.0
2014-Nov-02 01:20N 10°39' W 014°38'0 0.0
2014-Nov-02 00:23N 10°39' W 014°38'0 0.0
2014-Nov-01 23:26N 10°39' W 014°38'0 0.0
2014-Nov-01 22:26N 10°39' W 014°38'0 0.0
2014-Nov-01 21:29N 10°39' W 014°38'0 0.0
2014-Nov-01 14:20N 10°39' W 014°38'0 0.0
2014-Nov-01 13:17N 10°39' W 014°38'0 0.0
2014-Nov-01 11:23N 10°39' W 014°38'0 0.0
2014-Nov-01 10:26N 10°39' W 014°38'0 0.0
2014-Nov-01 09:23N 10°39' W 014°38'0 0.0
2014-Nov-01 08:14N 10°39' W 014°38'0 0.0
2014-Nov-01 07:11N 10°39' W 014°38'0 0.0
2014-Nov-01 06:11N 10°39' W 014°38'0 0.0
2014-Nov-01 05:29N 10°39' W 014°38'0 0.0
2014-Nov-01 04:29N 10°39' W 014°38'0 0.0
2014-Nov-01 03:32N 10°39' W 014°38'0 0.0
2014-Nov-01 02:21N 10°39' W 014°38'0 0.3
2014-Nov-01 01:33N 10°39' W 014°38'1 0.5
2014-Nov-01 00:26N 10°38' W 014°38'0 0.0
2014-Oct-31 23:26N 10°38' W 014°38'0 0.1
2014-Oct-31 22:29N 10°38' W 014°38'0 0.2
2014-Oct-31 21:29N 10°38' W 014°38'0 0.0
2014-Oct-31 20:26N 10°38' W 014°38'0 0.0
2014-Oct-31 19:29N 10°38' W 014°38'0 0.0
2014-Oct-31 18:14N 10°38' W 014°38'0 0.0
2014-Oct-31 17:32N 10°38' W 014°38'0 0.1
2014-Oct-31 16:20N 10°38' W 014°38'0 0.1
2014-Oct-31 15:32N 10°38' W 014°38'0 0.2
2014-Oct-31 14:32N 10°38' W 014°38'0 0.0
2014-Oct-31 13:20N 10°38' W 014°38'0 0.0
2014-Oct-31 12:23N 10°38' W 014°38'0 0.0
2014-Oct-31 11:26N 10°38' W 014°38'0 0.0
2014-Oct-31 10:11N 10°38' W 014°38'0 0.3
2014-Oct-31 09:23N 10°38' W 014°38'0 0.1
2014-Oct-31 08:29N 10°38' W 014°38'0 0.0
2014-Oct-31 07:14N 10°38' W 014°38'0 0.0
2014-Oct-31 06:11N 10°38' W 014°38'0 0.0
2014-Oct-31 05:29N 10°38' W 014°38'0 0.0
2014-Oct-31 04:32N 10°38' W 014°38'0 0.0
2014-Oct-31 03:32N 10°38' W 014°38'0 0.2
2014-Oct-31 02:32N 10°38' W 014°38'9 9.4
2014-Oct-31 01:34N 10°30' W 014°43'4 4.2
2014-Oct-31 00:33N 10°26' W 014°45'0 0.0
2014-Oct-30 23:34N 10°26' W 014°45'0 0.2
2014-Oct-30 22:34N 10°26' W 014°45'0 0.2
2014-Oct-30 21:32N 10°26' W 014°45'0 0.0
2014-Oct-30 20:25N 10°26' W 014°45'0 0.0
2014-Oct-30 19:32N 10°26' W 014°45'0 0.0
2014-Oct-30 18:33N 10°26' W 014°45'0 0.0
2014-Oct-30 17:30N 10°26' W 014°45'0 0.0
2014-Oct-30 16:33N 10°26' W 014°45'0 0.0
2014-Oct-30 15:27N 10°26' W 014°45'0 0.0
2014-Oct-30 09:31N 10°26' W 014°45'0 0.2
2014-Oct-30 08:23N 10°26' W 014°45'0 0.0
2014-Oct-30 06:29N 10°26' W 014°45'0 0.0
2014-Oct-30 04:33N 10°26' W 014°45'0 0.0
2014-Oct-30 03:33N 10°26' W 014°45'0 0.2
2014-Oct-30 02:31N 10°26' W 014°45'0 0.2
2014-Oct-30 01:31N 10°26' W 014°45'0 0.0
2014-Oct-30 00:07N 10°26' W 014°45'0 0.0
2014-Oct-29 23:23N 10°26' W 014°45'0 0.1
2014-Oct-29 19:32N 10°26' W 014°45'0 0.1
2014-Oct-29 18:33N 10°26' W 014°45'0 0.0
2014-Oct-29 17:20N 10°26' W 014°45'  
2014-Oct-26 05:04N 26°10' W 015°35'  

Dump ship's entire track history